logo
Games tagged Alternate History
# Game Release date
Price
Score rank
(Userscore / Metascore)
Owners
Players
Playtime (Median)
Developer(s)
Publisher(s)
1 BioShock Aug 21, 2007 $19.99N/A (N/A/96%)2,000,000 .. 5,000,0000.37%00:05 (00:01)2K Boston, 2K Australia2K
2 BioShock Infinite Mar 25, 2013 $29.99N/A (N/A/94%)2,000,000 .. 5,000,0001.23%05:48 (07:19)Irrational Games, Virtual Programming (Linux)2K
3 Return to Castle Wolfenstein Nov 20, 2001 $4.99N/A (N/A/88%)500,000 .. 1,000,0000%00:00 (00:00)Gray Matter StudiosBethesda-Softworks
4 Unity of Command II Nov 12, 2019 $29.99N/A (N/A/88%)20,000 .. 50,0000%00:00 (00:00)2x2 Games, Croteam2x2 Games
5 SUNLESS SKIES Jan 31, 2019 $24.99N/A (N/A/87%)200,000 .. 500,0003.85%00:58 (00:19)Failbetter GamesFailbetter Games
6 Europa Universalis IV Aug 13, 2013 $39.99N/A (N/A/87%)2,000,000 .. 5,000,00010.62%16:03 (16:30)Paradox Development StudioParadox Interactive
7 Wolfenstein II: The New Colossus Oct 26, 2017 $39.99N/A (N/A/86%)1,000,000 .. 2,000,0000%00:00 (00:00)Machine GamesBethesda Softworks
8 Assassin's Creed 2 Deluxe Edition Mar 9, 2010 $19.99N/A (N/A/86%)2,000,000 .. 5,000,0000%00:00 (00:00)Ubisoft MontrealUbisoft
9 Silent Storm Gold Edition Sep 9, 2004 $9.99N/A (N/A/83%)200,000 .. 500,0000%00:00 (00:00)NivalTHQ Nordic
10 Hypnospace Outlaw Mar 12, 2019 $19.99N/A (N/A/83%)100,000 .. 200,0000%00:00 (00:00)Tendershoot, Michael Lasch, ThatWhichIs MediaNo More Robots
11 Hearts of Iron IV Jun 6, 2016 $39.99N/A (N/A/83%)2,000,000 .. 5,000,00014.29%18:55 (04:47)Paradox Development StudioParadox Interactive
12 Europa Universalis III Complete Jan 23, 2007 $14.99N/A (N/A/83%)200,000 .. 500,0000%00:00 (00:00)Paradox Development StudioParadox Interactive
13 Command & Conquer: Red Alert 3 Jan 8, 2009 $19.99N/A (N/A/82%)500,000 .. 1,000,0000%00:00 (00:00)EA Los AngelesElectronic Arts
14 Suzerain Dec 4, 2020 $14.99N/A (N/A/81%)100,000 .. 200,0000%00:00 (00:00)Torpor GamesFellow Traveller
15 Irony Curtain: From Matryoshka with Love May 16, 2019 $19.99N/A (N/A/81%)0 .. 20,0000%00:00 (00:00)Artifex MundiArtifex Mundi
16 The Age of Decadence Oct 14, 2015 $12.99N/A (N/A/81%)100,000 .. 200,0000%00:00 (00:00)Iron Tower StudioIron Tower Studio
17 Wolfenstein: The New Order May 19, 2014 $19.99N/A (N/A/81%)1,000,000 .. 2,000,0000%00:00 (00:00)Machine GamesBethesda-Soft
18 Wargame: European Escalation Feb 22, 2012 $9.99N/A (N/A/81%)500,000 .. 1,000,0000%00:00 (00:00)Eugen SystemsEugen Systems
19 Jamestown Jun 8, 2011 $9.99N/A (N/A/81%)500,000 .. 1,000,0000%00:00 (00:00)Final Form GamesFinal Form Games
20 BioShock Remastered Sep 15, 2016 $19.99N/A (N/A/80%)2,000,000 .. 5,000,0001.12%00:51 (00:40)2K Boston, 2K Australia, Blind Squirrel, Feral Interactive (Mac)2K, Feral Interactive (Mac)
21 Wargame: Airland Battle May 29, 2013 $19.99N/A (N/A/80%)200,000 .. 500,0000%00:00 (00:00)Eugen SystemsEugen Systems
22 Assassin’s Creed III Nov 20, 2012 N/AN/A (N/A/80%)1,000,000 .. 2,000,0000%00:00 (00:00)Ubisoft MontrealUbisoft
23 Call of Juarez: Gunslinger May 22, 2013 $14.99N/A (N/A/79%)1,000,000 .. 2,000,0001.64%01:42 (00:34)TechlandTechland Publishing
24 Wargame: Red Dragon Apr 17, 2014 $29.99N/A (N/A/78%)1,000,000 .. 2,000,0001.47%02:14 (00:44)Eugen SystemsEugen Systems
25 Herald: An Interactive Period Drama - Book I & II Feb 22, 2017 $9.99N/A (N/A/77%)0 .. 20,0000%00:00 (00:00)WispfireWispfire
26 Hearts of Iron III Aug 7, 2009 $9.99N/A (N/A/77%)500,000 .. 1,000,0000%00:00 (00:00)Paradox Development StudioParadox Interactive
27 Broken Lines Feb 25, 2020 $24.99N/A (N/A/76%)20,000 .. 50,0000%00:00 (00:00)PortaPlaySuper.com
28 Wolfenstein: The Old Blood May 4, 2015 $19.99N/A (N/A/76%)500,000 .. 1,000,0000%00:00 (00:00)MachineGamesBethesda Softworks
29 Singularity Jun 30, 2010 $7.49N/A (N/A/76%)200,000 .. 500,0000%00:00 (00:00)Raven SoftwareActivision
30 Iron Harvest Aug 31, 2020 $49.99N/A (N/A/75%)200,000 .. 500,00010%00:01 (00:00)KING ArtDeep Silver
31 Kenshi Dec 6, 2018 $29.99N/A (N/A/75%)1,000,000 .. 2,000,0007.84%05:47 (07:42)Lo-Fi GamesLo-Fi Games
32 Battlezone 98 Redux Apr 18, 2016 $19.99N/A (N/A/75%)50,000 .. 100,0000%00:00 (00:00)Big Boat InteractiveRebellion
33 Victoria II Aug 30, 2010 $19.99N/A (N/A/75%)500,000 .. 1,000,0007.5%00:13 (00:12)Paradox Development StudioParadox Interactive
34 Zombie Army 4: Dead War Feb 18, 2021 $34.99N/A (N/A/74%)20,000 .. 50,0000%00:00 (00:00)RebellionRebellion
35 Battlestations Pacific May 12, 2009 N/AN/A (N/A/74%)200,000 .. 500,0000%00:00 (00:00)Eidos Studio HungarySquare Enix
36 Mars Horizon Nov 17, 2020 $19.99N/A (N/A/73%)100,000 .. 200,0000%00:00 (00:00)Auroch DigitalThe Irregular Corporation
37 Phantom Doctrine Aug 14, 2018 $39.99N/A (N/A/73%)200,000 .. 500,0000%00:00 (00:00)CreativeForge GamesGood Shepherd Entertainment
38 Blues and Bullets Jul 23, 2015 $4.99N/A (N/A/73%)50,000 .. 100,0000%00:00 (00:00)A Crowd of MonstersA Crowd of Monsters
39 Stubbs the Zombie in Rebel Without a Pulse Nov 15, 2005 $19.99N/A (N/A/72%)50,000 .. 100,0000%00:00 (00:00)AspyrAspyr
40 Lamplight City Sep 13, 2018 $14.99N/A (N/A/72%)50,000 .. 100,0000%00:00 (00:00)Grundislav GamesApplication Systems Heidelberg
41 All Walls Must Fall - A Tech-Noir Tactics Game Feb 23, 2018 $9.99N/A (N/A/72%)0 .. 20,0000%00:00 (00:00)inbetweengamesinbetweengames
42 Not Tonight Aug 17, 2018 $19.99N/A (N/A/71%)50,000 .. 100,0000%00:00 (00:00)PanicBarnNo More Robots
43 TimeShift Oct 30, 2007 $9.99N/A (N/A/71%)100,000 .. 200,0000%00:00 (00:00)Saber InteractiveActivision
44 Kosmokrats Nov 5, 2020 $14.99N/A (N/A/70%)0 .. 20,0000%00:00 (00:00)Pixel DelusionModern Wolf
45 Gladiator: Sword of Vengeance Nov 5, 2003 $7.99N/A (N/A/69%)0 .. 20,0000%00:00 (00:00)Throwback EntertainmentThrowback Entertainment
46 Iron Storm Oct 25, 2002 $2.99N/A (N/A/69%)50,000 .. 100,0000%00:00 (00:00)MicroidsMicroids
47 Bartlow's Dread Machine Sep 29, 2020 $14.99N/A (N/A/69%)0 .. 20,0000%00:00 (00:00)Beep Games, Inc., TribetoyBeep Games, Inc.
48 Moons of Madness Oct 22, 2019 $24.99N/A (N/A/69%)100,000 .. 200,0000%00:00 (00:00)Rock Pocket GamesFuncom
49 Wolfenstein: Youngblood Jul 25, 2019 $29.99N/A (N/A/69%)500,000 .. 1,000,0000%00:00 (00:00)Machine Games, Arkane StudiosBethesda Softworks
50 Pathway Apr 11, 2019 $15.99N/A (N/A/68%)200,000 .. 500,0000%00:00 (00:00)RobotalityChucklefish
51 Nikopol: Secrets of the Immortals Sep 7, 2008 $4.99N/A (N/A/68%)200,000 .. 500,0000%00:00 (00:00)Meridian4
52 Company of Crime Aug 7, 2020 $9.89N/A (N/A/66%)0 .. 20,0000%00:00 (00:00)Resistance Games1C Entertainment
53 The Church in the Darkness Aug 2, 2019 $19.99N/A (N/A/65%)0 .. 20,0000%00:00 (00:00)Paranoid ProductionsFellow Traveller
54 Command & Conquer: Red Alert 3 - Uprising Mar 12, 2009 $19.99N/A (N/A/64%)500,000 .. 1,000,0000%00:00 (00:00)EA Los AngelesElectronic Arts
55 Vertiginous Golf Mar 7, 2014 $9.99N/A (N/A/63%)200,000 .. 500,0000%00:00 (00:00)Kinelco & Lone Elk CreativeSurprise Attack
56 NecroVision May 20, 2009 $4.99N/A (N/A/63%)100,000 .. 200,0000%00:00 (00:00)The Farm 511C Entertainment
57 Cook, Serve, Delicious! 2!! Sep 13, 2017 $12.99N/A (N/A/62%)200,000 .. 500,0000%00:00 (00:00)Vertigo Gaming Inc.Vertigo Gaming Inc.
58 The Descendant Mar 24, 2016 $14.99N/A (N/A/59%)500,000 .. 1,000,0000%00:00 (00:00)Gaming Corps ABMicroids Indie, Microids
59 EMPYRE: Lords of the Sea Gates Oct 4, 2017 $29.99N/A (N/A/56%)0 .. 20,0000%00:00 (00:00)Coin Operated GamesCoin Operated Games, Work Shift Play Inc.
60 Bohemian Killing Jul 21, 2016 $12.99N/A (N/A/55%)20,000 .. 50,0000%00:00 (00:00)The MoonwallsLibredia Entertainment
61 Wolfenstein: Cyberpilot Jul 25, 2019 $19.99N/A (N/A/54%)0 .. 20,0000%00:00 (00:00)Arkane Studios, Machine GamesBethesda Softworks
62 Dino D-Day Apr 8, 2011 $9.99N/A (N/A/53%)1,000,000 .. 2,000,0000%00:00 (00:00)800 North and Digital Ranch800 North and Digital Ranch
63 Darkest of Days Sep 2009 $19.99N/A (N/A/51%)20,000 .. 50,0000%00:00 (00:00)8monkey LabsPhantom EFX
64 Freedom Fighters Sep 26, 2003 $14.99N/A (N/A)50,000 .. 100,0000%00:00 (00:00)IO Interactive A/SIO Interactive A/S
65 World War Zero Oct 25, 2002 $4.99N/A (N/A)0 .. 20,0000%00:00 (00:00)RebellionRebellion
66 Super 3-D Noah's Ark Jan 1, 1995 $4.99N/A (N/A)50,000 .. 100,0000%00:00 (00:00)Wisdom Tree, Inc.Piko Interactive LLC, Classics Digital
67 Battle Command Jun 1, 1990 $4.99N/A (N/A)200,000 .. 500,0000%00:00 (00:00)Ocean SoftwarePixel Games UK
68 Nigate Tale Apr 11, 2021 $16.99N/A (N/A)0 .. 20,0000%00:00 (00:00)Hermit Games2P Games
69 ShemHaMephorash Apr 9, 2021 $6.43N/A (N/A)0 .. 20,0000%00:00 (00:00)SignTyche, Tyche's BookshelfTyche's Bookshelf
70 Late Rebirth Apr 2, 2021 $0.99N/A (N/A)0 .. 20,0000%00:00 (00:00)Hot Chill, Pixel StoriesHot Chill
71 Paradise Lost Mar 24, 2021 $14.99N/A (N/A)50,000 .. 100,0000%00:00 (00:00)PolyAmorousAll in! Games
72 41 Hours: Prologue Mar 19, 2021 FreeN/A (N/A)20,000 .. 50,0000%00:00 (00:00)TexelworksValkyrie Initiative
73 Mr. Prepper Mar 18, 2021 $19.99N/A (N/A)100,000 .. 200,00020%12:55 (04:18)Rejected GamesPlayWay S.A., Rejected Games
74 子夜之章:历史的终局~MidNights of Desperado~ Mar 12, 2021 $2.99N/A (N/A)0 .. 20,0000%00:00 (00:00)银阼银阼
75 Making History: The First World War Mar 5, 2021 $24.99N/A (N/A)0 .. 20,0000%00:00 (00:00)Factus GamesFactus Games
76 Run Ralph Run Mar 3, 2021 $3.99N/A (N/A)0 .. 20,0000%00:00 (00:00)FreeAnimals_SoftwareDnovel
77 GET OUT! Mar 2, 2021 FreeN/A (N/A)20,000 .. 50,0000%00:00 (00:00)MilpitiansMilpitians
78 Wonhon: Prologue Feb 28, 2021 FreeN/A (N/A)100,000 .. 200,0000%00:00 (00:00)BUSAN SANAI GAMESSuper.com
79 Victory At Sea Ironclad Feb 25, 2021 $39.99N/A (N/A)0 .. 20,0000%00:00 (00:00)Evil Twin ArtworksEvil Twin Artworks
80 Conspiracy Girls Feb 24, 2021 FreeN/A (N/A)0 .. 20,0000%00:00 (00:00)House of DelarouxHouse of Delaroux
81 Destroy It Feb 23, 2021 $9.99N/A (N/A)0 .. 20,0000%00:00 (00:00)Destroy ItDestroy It
82 Collapse: A Political Simulator Feb 23, 2021 $6.99N/A (N/A)50,000 .. 100,0000%00:00 (00:00)KremlingamesKremlingames
83 Middle Age Conquest Feb 22, 2021 $6.99N/A (N/A)0 .. 20,0000%00:00 (00:00)Musa GUNGORMusa GUNGOR
84 RevolVR 3 Feb 22, 2021 $14.99N/A (N/A)20,000 .. 50,0000%00:00 (00:00)Never BoredNever Bored
85 Breath of the Forest Feb 20, 2021 $14.99N/A (N/A)0 .. 20,0000%00:00 (00:00)Fz LabsFz Labs
86 Taxer Inc Feb 17, 2021 $7.99N/A (N/A)0 .. 20,0000%00:00 (00:00)Hamsters GamingHamsters Gaming
87 BATTLESCAR: Punk Was Invented By Girls Feb 17, 2021 $5.99N/A (N/A)0 .. 20,0000%00:00 (00:00)Atlas VARTE France, RYOT
88 Video Realms Feb 14, 2021 FreeN/A (N/A)0 .. 20,0000%00:00 (00:00)Allen CaneZenrok Studios
89 ComPressure Feb 13, 2021 $4.99N/A (N/A)20,000 .. 50,0000%00:00 (00:00)Charlie BrejCharlie Brej
90 Poly Squad Feb 13, 2021 $3.74N/A (N/A)20,000 .. 50,0000%00:00 (00:00)OXO GamesOXO Games
91 Mythic Zombies Feb 13, 2021 $9.99N/A (N/A)0 .. 20,0000%00:00 (00:00)Mythic GamingMythic Gaming
92 MachineryWorld Feb 12, 2021 $19.99N/A (N/A)0 .. 20,0000%00:00 (00:00)DY-WorksDY-Works
93 Nominal Feb 9, 2021 $14.99N/A (N/A)0 .. 20,0000%00:00 (00:00)Offworld Systems LLCOffworld Systems LLC
94 IDIOT Jan 30, 2021 $4.99N/A (N/A)0 .. 20,0000%00:00 (00:00)Andreev Worlds, Alexander ManaenkovAndreev Worlds
95 HROT Jan 29, 2021 $16.99N/A (N/A)0 .. 20,0000%00:00 (00:00)SpytihněvSpytihněv
96 Please Wake Up Jan 29, 2021 $5.99N/A (N/A)0 .. 20,0000%00:00 (00:00)CLU Entertainment LLCCLU Entertainment LLC
97 Dungeons & Cocks Jan 28, 2021 $6.99N/A (N/A)0 .. 20,0000%00:00 (00:00)the Bratansthe Bratans
98 Gizmos: Interstellar Voyage Jan 28, 2021 $4.99N/A (N/A)0 .. 20,0000%00:00 (00:00)Oleg SeredaOleg Sereda
99 A Painter's Tale: Curon, 1950 Jan 28, 2021 $7.99N/A (N/A)0 .. 20,0000%00:00 (00:00)Monkeys Tales StudioMonkeys Tales Studio, IVIPRO
100 Ryte - The Eye of Atlantis Jan 27, 2021 $19.99N/A (N/A)0 .. 20,0000%00:00 (00:00)Orichalcum Pictures, Ebim Studio, Digiteyes, VR-ConnectionOrichalcum Pictures
101 Portal Defect Jan 24, 2021 $2.99N/A (N/A)0 .. 20,0000%00:00 (00:00)Gin MotionGin Motion
102 Cannibal Coast Jan 19, 2021 $1.99N/A (N/A)0 .. 20,0000%00:00 (00:00)Wholetone GamesWholetone Games
103 Diving Disorder-下潜症 Jan 15, 2021 $2.99N/A (N/A)0 .. 20,0000%00:00 (00:00)Lingtan StudioLingtan Studio
104 Cloud Climber Jan 14, 2021 FreeN/A (N/A)100,000 .. 200,0000%00:00 (00:00)Two Star GamesTwo Star Games
105 Amazing Pyramids: Rebirth Jan 14, 2021 $6.99N/A (N/A)0 .. 20,0000%00:00 (00:00)Oleg SeredaOleg Sereda
106 Quarantine: Global Pandemic Jan 13, 2021 $1.19N/A (N/A)20,000 .. 50,0000%00:00 (00:00)Buck StudiosBuck Studios
107 Arm of Revenge Re-Edition Jan 13, 2021 $4.99N/A (N/A)0 .. 20,0000%00:00 (00:00)MagicWingMagicWing
108 All is Fair in Dust and Air Jan 12, 2021 $9.99N/A (N/A)0 .. 20,0000%00:00 (00:00)Broken Hammer Games, LLCBroken Hammer Games, LLC
109 Critters for Sale: SNAKE Jan 8, 2021 FreeN/A (N/A)0 .. 20,0000%00:00 (00:00)SonosheeSonoshee
110 列传:革新战争 Jan 7, 2021 $16.99N/A (N/A)0 .. 20,0000%00:00 (00:00)Ash Game StudioAsh Game Studio
111 月之泪 ~ Tears of Luna Jan 5, 2021 $3.99N/A (N/A)0 .. 20,0000%00:00 (00:00)宇智波早苗宇智波早苗
112 Soulestination Jan 5, 2021 $2.99N/A (N/A)20,000 .. 50,0000%00:00 (00:00)ZaxiquejZaxiquej
113 I'a I'a Cofflhu Fhtagnyaa Jan 4, 2021 $3.49N/A (N/A)20,000 .. 50,0000%00:00 (00:00)lamb of gamelamb of game
114 Heart World Dec 24, 2020 $0.99N/A (N/A)20,000 .. 50,0000%00:00 (00:00)凌望游戏工作室凌望游戏工作室, 花蕊游戏工作室
115 Phoenix Squadron: Northern Star Dec 23, 2020 FreeN/A (N/A)20,000 .. 50,0000%00:00 (00:00)Starcrater21Starcrater21
116 Amborettio Dec 21, 2020 $4.99N/A (N/A)50,000 .. 100,0000%00:00 (00:00)WanechWanech
117 Carperation Dec 21, 2020 $24.99N/A (N/A)0 .. 20,0000%00:00 (00:00)VastudioVastudio
118 Gizmos: Spirit Of The Christmas Dec 15, 2020 $4.99N/A (N/A)0 .. 20,0000%00:00 (00:00)Oleg SeredaOleg Sereda
119 九个世界(Nine worlds) Dec 14, 2020 $14.99N/A (N/A)0 .. 20,0000%00:00 (00:00)
120 Adventures of Megara: Antigone and the Living Toys Dec 10, 2020 $11.99N/A (N/A)0 .. 20,0000%00:00 (00:00)GameOn ProductionJetdogs Studios
121 Deceased Dec 9, 2020 $5.99N/A (N/A)50,000 .. 100,0000%00:00 (00:00)BT StudiosBT Studios
122 Game Localization Dec 7, 2020 $9.99N/A (N/A)0 .. 20,0000%00:00 (00:00)Game LocalizationGame Localization
123 Aefen Fall Dec 4, 2020 $6.99N/A (N/A)0 .. 20,0000%00:00 (00:00)Studio 9.7Studio 9.7
124 Stupid Stories Dec 3, 2020 $0.99N/A (N/A)0 .. 20,0000%00:00 (00:00)MoMo
125 I Am Your President: Prologue Dec 2, 2020 FreeN/A (N/A)20,000 .. 50,0000%00:00 (00:00)President StudioPlayWay S.A.
126 Field Hospital: Dr. Taylor's Story Nov 27, 2020 $6.99N/A (N/A)0 .. 20,0000%00:00 (00:00)Gard InteractiveGard Interactive
127 Dawn of the Mexica Nov 26, 2020 $11.99N/A (N/A)20,000 .. 50,0000%00:00 (00:00)Pablo BarrónPablo Barrón
128 Subterene Nov 22, 2020 $0.99N/A (N/A)0 .. 20,0000%00:00 (00:00)PossmonautTrashtronaut
129 Pleiades - A Subversion Saga Game Nov 22, 2020 $7.99N/A (N/A)20,000 .. 50,0000%00:00 (00:00)Joshua Linscott, 1122 IndustriesJoshua Linscott, 1122 Industries
130 ~Be a maid in the Demon World~ The Secret Café of the Demon Angel Hero. Nov 21, 2020 $12.34N/A (N/A)0 .. 20,0000%00:00 (00:00)Kokutou UmeboshiKokutou Umeboshi
131 The Cherry Orchard Nov 20, 2020 $6.99N/A (N/A)0 .. 20,0000%00:00 (00:00)Team DogpitTeam Dogpit
132 The Prologue to a Dream of Home Nov 20, 2020 $1.99N/A (N/A)0 .. 20,0000%00:00 (00:00)KN1053KN1053
133 Ricky did nothing wrong Nov 19, 2020 FreeN/A (N/A)100,000 .. 200,0000%00:00 (00:00)Alexander Cirac AntioAlexander Cirac Antio
134 Silicon Valley Investor Nov 18, 2020 $2.99N/A (N/A)0 .. 20,0000%00:00 (00:00)Revolver NineRevolver Nine
135 Seditionis: Tower Defense Nov 18, 2020 FreeN/A (N/A)50,000 .. 100,0000%00:00 (00:00)Dragonflare StudiosDragonflare Studios
136 Strategic Mind: Spectre of Communism Nov 13, 2020 $29.99N/A (N/A)0 .. 20,0000%00:00 (00:00)Starni GamesStarni Games
137 No Place for the Dissident Nov 12, 2020 $19.99N/A (N/A)0 .. 20,0000%00:00 (00:00)David M.David M.
138 Observer: System Redux Nov 10, 2020 $29.99N/A (N/A)100,000 .. 200,0000%00:00 (00:00)Bloober Team, Anshar StudiosBloober Team SA
139 Good puzzle: Castles Nov 9, 2020 $1.99N/A (N/A)0 .. 20,0000%00:00 (00:00)Laush Dmitriy SergeevichLaush Studio
140 Möbius Front '83 Nov 5, 2020 $19.99N/A (N/A)20,000 .. 50,0000%00:00 (00:00)ZachtronicsZachtronics
141 The Emperor's Own: Alpha Teaser Nov 4, 2020 FreeN/A (N/A)20,000 .. 50,0000%00:00 (00:00)Volga StudiosVolga Studios
142 Hassle 1977 Nov 3, 2020 $12.99N/A (N/A)0 .. 20,0000%00:00 (00:00)Limkernel Gamedev GangLimkernel Gamedev Gang
143 Junk on Wheels Nov 1, 2020 $9.99N/A (N/A)0 .. 20,0000%00:00 (00:00)Infravision Inc.Infravision Inc.
144 Dreadful Shadows Oct 31, 2020 $19.99N/A (N/A)0 .. 20,0000%00:00 (00:00)Brainroot StudioBrainRoot Studio
145 Isolation Story Oct 27, 2020 $9.99N/A (N/A)0 .. 20,0000%00:00 (00:00)ElushisElushis Music & Gaming
146 Gizmos: Spooky Adventures Oct 26, 2020 $4.99N/A (N/A)0 .. 20,0000%00:00 (00:00)Oleg SeredaOleg Sereda
147 Ratten Reich - Dance of Kings Oct 25, 2020 FreeN/A (N/A)20,000 .. 50,0000%00:00 (00:00)MetalAdlerStudioMetalAdlerStudio
148 Building 847 Oct 23, 2020 $4.99N/A (N/A)0 .. 20,0000%00:00 (00:00)Deliriously HappyDeliriously Happy
149 Electioneering Oct 20, 2020 $14.99N/A (N/A)0 .. 20,0000%00:00 (00:00)Cosmo's TuxedoCosmo's Tuxedo
150 Chesnakisnak Oct 19, 2020 FreeN/A (N/A)0 .. 20,0000%00:00 (00:00)SchirwindtSchirwindt
151 剑与羁绊 Oct 16, 2020 $8.99N/A (N/A)0 .. 20,0000%00:00 (00:00)y2工作室y2工作室
152 Rogue Aces Deluxe Oct 16, 2020 FreeN/A (N/A)0 .. 20,0000%00:00 (00:00)Infinite State Games, Projector StudiosInfinite State Games
153 Religion inc God Simulator Oct 16, 2020 $4.99N/A (N/A)20,000 .. 50,0000%00:00 (00:00)GameFirstGameFirst
154 BORIS THE ROCKET Oct 14, 2020 $9.99N/A (N/A)0 .. 20,0000%00:00 (00:00)toR StudiotoR Studio
155 The Heroic Legend of Eagarlnia Oct 14, 2020 $12.99N/A (N/A)50,000 .. 100,0000%00:00 (00:00)HongShou StudioPixmain
156 Bloody Rally Show: Prologue Oct 13, 2020 FreeN/A (N/A)0 .. 20,0000%00:00 (00:00)Kodo LinijaKodo Linija
157 星尘战区 Stardust Theater Oct 6, 2020 $0.99N/A (N/A)0 .. 20,0000%00:00 (00:00)TlpProjectTlpProject
158 Evil Democracy: 1932 Oct 3, 2020 $11.99N/A (N/A)0 .. 20,0000%00:00 (00:00)Hamsters GamingHamsters Gaming
159 Vampires' Melody Oct 2, 2020 $3.99N/A (N/A)50,000 .. 100,0000%00:00 (00:00)AsicxArtSakuraGame
160 A Monster's Expedition Sep 10, 2020 $15.99N/A (N/A)0 .. 20,0000%00:00 (00:00)Draknek & FriendsDraknek
161 Earth: 9000 Sep 10, 2020 $4.99N/A (N/A)0 .. 20,0000%00:00 (00:00)Secret Forest GamesSecret Forest Games
162 The Girl of Glass: A Summer Bird's Tale - The Journey Begins Sep 7, 2020 N/AN/A (N/A)0 .. 20,0000%00:00 (00:00)Markus with friendsEn Widunderlig Produktion
163 Eternal Liiivie - EP1 Liiivie Isolated From the World Sep 6, 2020 $6.99N/A (N/A)0 .. 20,0000%00:00 (00:00)梅果子Plumko, 純白花園WeissGarden純白花園WeissGarden, Lewd Formosa
164 Combat Mission Shock Force 2 Aug 31, 2020 $59.99N/A (N/A)0 .. 20,0000%00:00 (00:00)BattlefrontSlitherine Ltd.
165 Mr. Prepper: Prologue Aug 27, 2020 FreeN/A (N/A)200,000 .. 500,0000%00:00 (00:00)Rejected GamesPlayWay S.A., Rejected Games
166 Yupitergrad Aug 27, 2020 $14.99N/A (N/A)0 .. 20,0000%00:00 (00:00)GamedustGamedust
167 Fuhrer in LA - Special Edition Aug 26, 2020 $1.99N/A (N/A)100,000 .. 200,0000%00:00 (00:00)Ankaar ProductionsAnkaar Productions
168 Winds Rhapsody Aug 23, 2020 FreeN/A (N/A)50,000 .. 100,0000%00:00 (00:00)Ocean's DreamDegica
169 Zodiakalik Aug 19, 2020 $3.74N/A (N/A)20,000 .. 50,0000%00:00 (00:00)Diego Fernandes Malinowsky, Altanir Aparecida Fernandes MalinowskyDiego Fernandes Malinowsky
170 Rocking Legend Aug 6, 2020 $24.99N/A (N/A)0 .. 20,0000%00:00 (00:00)Domuro SoftDomuro Soft
171 The Outcast Lovers Jul 31, 2020 FreeN/A (N/A)0 .. 20,0000%00:00 (00:00)Chard, de Fault, Richard CampbellFar Few Giants
172 Imperiums: Greek Wars Jul 30, 2020 $29.99N/A (N/A)50,000 .. 100,0000%00:00 (00:00)Kube GamesKube Games
173 Light Tracer 2 ~The Two Worlds~ Jul 30, 2020 $19.99N/A (N/A)0 .. 20,0000%00:00 (00:00)Void DimensionsChuyan Inc.
174 The Soldiers Factory Jul 27, 2020 $17.99N/A (N/A)20,000 .. 50,0000%00:00 (00:00)Bommi ProduktionBommi Produktion
175 Argy Bargy Legends Jul 17, 2020 $7.99N/A (N/A)0 .. 20,0000%00:00 (00:00)TWO B SOFTTWO B SOFT
176 Commander '85 Prologue Jul 16, 2020 FreeN/A (N/A)0 .. 20,000100%00:07 (00:07)The MoonwallsUltimate Games S.A.
177 Tyrannis Jul 8, 2020 $9.99N/A (N/A)0 .. 20,0000%00:00 (00:00)cGh ONEcGh ONE
178 Robo Terror Jul 4, 2020 $2.99N/A (N/A)0 .. 20,0000%00:00 (00:00)Alex Game Dev.Garage Games
179 Brain Sanguo Jun 30, 2020 $0.99N/A (N/A)0 .. 20,0000%00:00 (00:00)Brian Master (脑补大师)Brian Master (脑补大师)
180 The Night Fisherman Jun 29, 2020 FreeN/A (N/A)100,000 .. 200,0000%00:00 (00:00)de Fault, Chard, Richard CampbellFar Few Giants
181 Hard Driver 2 Jun 26, 2020 $1.99N/A (N/A)0 .. 20,0000%00:00 (00:00)Wertex Gamesgigantumgames
182 Relic Guardians: Complete Jun 22, 2020 $2.99N/A (N/A)20,000 .. 50,0000%00:00 (00:00)victor sette gamesvictor sette games
183 Secret Government Jun 22, 2020 $24.99N/A (N/A)0 .. 20,0000%00:00 (00:00)GameTrek1C Entertainment
184 The Sickle Upon Sekigahara Jun 22, 2020 $4.99N/A (N/A)0 .. 20,0000%00:00 (00:00)Nic3NtertainmentNic3Ntertainment
185 Lost Jun 10, 2020 $10.99N/A (N/A)0 .. 20,0000%00:00 (00:00)玩多阵 Studio玩多阵 Studio
186 1971 PROJECT HELIOS Jun 9, 2020 $24.99N/A (N/A)0 .. 20,0000%00:00 (00:00)Recotechnology S.L.Recotechnology S.L.
187 法洛伊幻境 Fareo Shadowlands Jun 3, 2020 $6.99N/A (N/A)0 .. 20,0000%00:00 (00:00)EmpromGameEmpromGame
188 Tales Of Glory May 30, 2020 $29.99N/A (N/A)0 .. 20,0000%00:00 (00:00)BlackTale GamesBlackTale Games
189 Kairos'Light May 29, 2020 FreeN/A (N/A)0 .. 20,0000%00:00 (00:00)Manon Carrier, Jean-marc Vanbalberghe, Arnaud VanbalbergheAssoc. Let's Develop Change
190 风信楼 May 22, 2020 $11.99N/A (N/A)20,000 .. 50,0000%00:00 (00:00)Pingfang GamesPingfang Games
191 Strategic Mind: Blitzkrieg May 22, 2020 $39.99N/A (N/A)0 .. 20,0000%00:00 (00:00)Starni GamesStarni Games
192 Section Six May 19, 2020 $3.99N/A (N/A)0 .. 20,0000%00:00 (00:00)Lepus GamesLepus Games
193 Boston AInamics May 18, 2020 $9.99N/A (N/A)0 .. 20,0000%00:00 (00:00)Boston AInamicsBoston AInamics
194 BEAR, VODKA, FALL OF BERLIN! May 18, 2020 $1.99N/A (N/A)0 .. 20,0000%00:00 (00:00)Rabotiagi gamesRabotiagi games
195 Caffeine: Victoria's Legacy Mar 20, 2020 $17.99N/A (N/A)0 .. 20,0000%00:00 (00:00)Kikai DigitalKikai Digital
196 Pendula Swing - The Complete Journey Mar 8, 2020 $16.99N/A (N/A)0 .. 20,0000%00:00 (00:00)Valiant Game Studio ABValiant Game Studio AB
197 Not For Broadcast Jan 30, 2020 $24.99N/A (N/A)200,000 .. 500,0000%00:00 (00:00)NotGamestinyBuild
198 Dark Hope: A Puzzle Adventure Jan 17, 2020 $9.99N/A (N/A)50,000 .. 100,0000%00:00 (00:00)Broken Bunny Studios, IncBroken Bunny Studios, Inc
199 Gizmos: Steampunk Nonograms Jan 17, 2020 $4.99N/A (N/A)0 .. 20,0000%00:00 (00:00)Oleg SeredaOleg Sereda
200 Singularity: Tactics Arena Dec 17, 2019 $4.99N/A (N/A)0 .. 20,0000%00:00 (00:00)A Memory of Eternity LLCA Memory of Eternity LLC
201 Aurora - Hidden Colors Dec 13, 2019 $3.99N/A (N/A)20,000 .. 50,0000%00:00 (00:00)Aurora - Mídia & GamesAurora - Mídia & Games
202 Heroes Of Maidan 3: Crimean Battle Dec 10, 2019 $2.99N/A (N/A)0 .. 20,0000%00:00 (00:00)LuftWaffelLuftWaffel
203 Ritual: Crown of Horns Nov 7, 2019 $19.99N/A (N/A)0 .. 20,0000%00:00 (00:00)Draw DistanceFeardemic
204 BEARS, VODKA, BALALAIKA! Nov 6, 2019 $1.99N/A (N/A)20,000 .. 50,0000%00:00 (00:00)Rabotiagi gamesRabotiagi games
205 Strategic Mind: The Pacific Oct 25, 2019 $29.99N/A (N/A)50,000 .. 100,0000%00:00 (00:00)Starni GamesStarni Games
206 BDSM: Big Drunk Satanic Massacre Oct 10, 2019 $19.99N/A (N/A)20,000 .. 50,0000%00:00 (00:00)Big Way GamesBig Way Games
207 Taste of Power Oct 10, 2019 $14.99N/A (N/A)0 .. 20,0000%00:00 (00:00)OneOcean LLCOneOcean LLC
208 HEIST Sep 27, 2019 $18.99N/A (N/A)0 .. 20,0000%00:00 (00:00)Atomizer GamesAtomizer Games
209 I Love You, Colonel Sanders! A Finger Lickin’ Good Dating Simulator Sep 24, 2019 FreeN/A (N/A)500,000 .. 1,000,0000%00:00 (00:00)PsyopKFC
210 In the beginning Sep 7, 2019 $9.99N/A (N/A)0 .. 20,0000%00:00 (00:00)Solare GamesSolare Games
211 Last Day of Rome Sep 6, 2019 $11.99N/A (N/A)0 .. 20,0000%00:00 (00:00)HamstersHamsters
212 macdows 95 Sep 5, 2019 $4.99N/A (N/A)0 .. 20,0000%00:00 (00:00)Yunus AyyildizYunus Ayyildiz
213 Fit For a King Sep 5, 2019 $9.99N/A (N/A)0 .. 20,0000%00:00 (00:00)Brent Ellison, Tanya X. ShortKitfox Games
214 Overpass Aug 15, 2019 $14.99N/A (N/A)0 .. 20,0000%00:00 (00:00)Studio BeanStudio Bean
215 TUTUTUTU - Tea party Aug 14, 2019 $15.99N/A (N/A)0 .. 20,0000%00:00 (00:00)Marginal actMarginal act
216 Saboteur II: Avenging Angel Aug 2, 2019 $7.99N/A (N/A)0 .. 20,0000%00:00 (00:00)SimFabric, Clive TownsendSimFabric
217 Bloody Chronicles - New Cycle of Death Visual Novel Aug 1, 2019 $24.99N/A (N/A)0 .. 20,0000%00:00 (00:00)Igrasil Development TeamIgrasil Studio
218 Rick Rack Aug 1, 2019 $4.49N/A (N/A)0 .. 20,0000%00:00 (00:00)VishwaKarmaStudios4t2 games
219 KILL la KILL -IF Jul 25, 2019 $19.99N/A (N/A)20,000 .. 50,0000%00:00 (00:00)Arc System Works, APLUS Co., Ltd.Arc System Works
220 Telefrag VR Jul 19, 2019 $19.99N/A (N/A)0 .. 20,0000%00:00 (00:00)Anshar StudiosAnshar Studios
221 局外人 L'Etranger Jul 17, 2019 FreeN/A (N/A)20,000 .. 50,0000%00:00 (00:00)Class-2Class-2
222 Supremacy 1914: World War 1 Jul 16, 2019 FreeN/A (N/A)100,000 .. 200,0000%00:00 (00:00)Bytro Labs GmbHBytro Labs GmbH
223 Master Of Secrets: Dark Europe Jun 25, 2019 $3.99N/A (N/A)0 .. 20,0000%00:00 (00:00)Tap by TapTap by Tap
224 Superstar Hero Jun 13, 2019 FreeN/A (N/A)20,000 .. 50,0000%00:00 (00:00)DJ Omnimaga MusicDJ Omnimaga Music
225 时之扉 Jun 11, 2019 FreeN/A (N/A)20,000 .. 50,0000%00:00 (00:00)JT Interactive EntertainmentJT Interactive Entertainment
226 Generals & Rulers Jun 1, 2019 $11.99N/A (N/A)0 .. 20,0000%00:00 (00:00)Hamsters GamingHamsters Gaming
227 Cheeky Beetle And The Unlikely Heroes May 22, 2019 $2.99N/A (N/A)100,000 .. 200,0000%00:00 (00:00)Rocksoft LtdRocksoft Ltd
228 Fade Out May 21, 2019 $7.99N/A (N/A)20,000 .. 50,0000%00:00 (00:00)PlaySysPlaySys
229 Precipice May 1, 2019 $7.99N/A (N/A)0 .. 20,0000%00:00 (00:00)LRDGames, Inc.LRDGames, Inc.
230 AXYOS: Battlecards Apr 22, 2019 $4.99N/A (N/A)0 .. 20,0000%00:00 (00:00)Axyos GamesAxyos Games
231 Ymir Mar 16, 2019 $34.99N/A (N/A)50,000 .. 100,0000%00:00 (00:00)Thibaud MichaudThibaud Michaud
232 Lyratha: Labyrinth - Survival - Escape Mar 11, 2019 $6.99N/A (N/A)20,000 .. 50,0000%00:00 (00:00)Lord ImperioLord Imperio
233 7th Sector Mar 5, 2019 $12.99N/A (N/A)50,000 .. 100,0000%00:00 (00:00)Носков СергейНосков Сергей
234 Blood Bond - Into the Shroud Feb 27, 2019 $24.99N/A (N/A)0 .. 20,0000%00:00 (00:00)W.R.K.S GamesW.R.K.S Games
235 Rogue Reaper Feb 1, 2019 FreeN/A (N/A)50,000 .. 100,0000%00:00 (00:00)Fireroot StudiosFireroot Studios
236 Zombies In The Dark Jan 7, 2019 $0.99N/A (N/A)0 .. 20,0000%00:00 (00:00)SYNERGYSYNERGY
237 Citizen of Rome - Dynasty Ascendant Jan 1, 2019 $6.99N/A (N/A)100,000 .. 200,0000%00:00 (00:00)Citizen of Rome - Dynasty Ascendant, Sathvik Software SolutionsCitizen of Rome - Dynasty Ascendant, Sathvik Software Solutions
238 Corrupt The Priest Dec 14, 2018 $3.99N/A (N/A)0 .. 20,0000%00:00 (00:00)Tap by TapTap by Tap
239 Evil Bank Manager Dec 8, 2018 $11.99N/A (N/A)50,000 .. 100,0000%00:00 (00:00)Hamsters GamingHamsters Gaming
240 Above the Fold Dec 3, 2018 $13.99N/A (N/A)0 .. 20,0000%00:00 (00:00)Rasmus RasmussenRasmus Rasmussen
241 Age of History II Nov 21, 2018 $4.99N/A (N/A)500,000 .. 1,000,0009.09%18:24 (12:16)Łukasz JakowskiŁukasz Jakowski Games
242 ✌ Johnny Rocket Nov 12, 2018 $9.99N/A (N/A)0 .. 20,0000%00:00 (00:00)KG Game Studuo, hedehede
243 Tombeaux Nov 5, 2018 $4.99N/A (N/A)0 .. 20,0000%00:00 (00:00)Dave BeckDave Beck
244 Automobiels and the Eisenhower Hiway System the Game Nov 1, 2018 FreeN/A (N/A)0 .. 20,0000%00:00 (00:00)Jeffrey MarshJeffrey marsh
245 Headliner: NoviNews Oct 23, 2018 $13.99N/A (N/A)50,000 .. 100,0000%00:00 (00:00)Unbound CreationsUnbound Creations
246 Death Trader: Cold War Oct 19, 2018 $14.99N/A (N/A)0 .. 20,0000%00:00 (00:00)DreambakersDreambakers
247 Crimson Gray: Dusk and Dawn Oct 5, 2018 $4.99N/A (N/A)0 .. 20,0000%00:00 (00:00)Sierra LeeSierra Lee
248 The Great Fantasy Struggle Sep 26, 2018 $4.99N/A (N/A)0 .. 20,0000%00:00 (00:00)Alina DigitalAlina Digital
249 Age of Viking Conquest Sep 19, 2018 $4.99N/A (N/A)0 .. 20,0000%00:00 (00:00)Nemoïd AppsArgonauts Interactive
250 Victory At Sea Pacific Sep 14, 2018 $19.99N/A (N/A)20,000 .. 50,0000%00:00 (00:00)Evil Twin ArtworksEvil Twin Artworks
251 Scythe: Digital Edition Sep 5, 2018 $19.99N/A (N/A)200,000 .. 500,0000%00:00 (00:00)The Knights of UnityAsmodee Digital
252 Witch The Bloodlines Sep 3, 2018 $14.99N/A (N/A)0 .. 20,0000%00:00 (00:00)Kerim KumbasarKerim Kumbasar
253 Age of Gladiators II: Rome Aug 21, 2018 $19.99N/A (N/A)20,000 .. 50,0000%00:00 (00:00)Creative Storm EntertainmentCreative Storm Entertainment
254 Airships: Conquer the Skies Aug 16, 2018 $14.99N/A (N/A)200,000 .. 500,00016.67%21:54 (07:18)David StarkDavid Stark
255 Pendula Swing Episode 1 - Tired and Retired Aug 15, 2018 N/AN/A (N/A)0 .. 20,0000%00:00 (00:00)Valiant Game Studio ABValiant Game Studio AB
256 Imperialism: Fate of India Aug 10, 2018 $14.99N/A (N/A)0 .. 20,0000%00:00 (00:00)GamenesisGamenesis
257 Intelligence Trader Aug 3, 2018 $9.99N/A (N/A)0 .. 20,0000%00:00 (00:00)DreambakersDreambakers
258 End War RTS Aug 1, 2018 $7.99N/A (N/A)0 .. 20,0000%00:00 (00:00)AuroraAurora
259 Aces of the Luftwaffe - Squadron Jul 24, 2018 $14.99N/A (N/A)20,000 .. 50,0000%00:00 (00:00)HandyGamesHandyGames
260 Because We're Here - Act I Jul 19, 2018 $5.99N/A (N/A)0 .. 20,0000%00:00 (00:00)Studio ElfriedeStudio Elfriede
261 Hue Defense Jul 6, 2018 $4.99N/A (N/A)0 .. 20,0000%00:00 (00:00)Brave Wolf StudioBrave Wolf Studio
262 Shadow Council: The Puppeteers Jun 21, 2018 $14.99N/A (N/A)0 .. 20,0000%00:00 (00:00)Tap by TapTap by Tap
263 Chronicles of Vinland May 23, 2018 $19.99N/A (N/A)0 .. 20,0000%00:00 (00:00)GamenesisGamenesis
264 ESCAPE FROM VOYNA: Tactical FPS survival May 10, 2018 $10.99N/A (N/A)0 .. 20,0000%00:00 (00:00)Dead CrowDead Crow
265 Making History: The Second World War Apr 27, 2018 $19.49N/A (N/A)50,000 .. 100,0000%00:00 (00:00)Factus GamesFactus Games
266 Panzer Hearts - War Visual Novel Apr 25, 2018 FreeN/A (N/A)0 .. 20,0000%00:00 (00:00)HELYEESHELYEES
267 Steampunk Tower 2 Apr 19, 2018 $7.99N/A (N/A)20,000 .. 50,0000%00:00 (00:00)DreamGateDreamGate
268 Third Front: WWII Apr 6, 2018 $7.99N/A (N/A)20,000 .. 50,0000%00:00 (00:00)Hamsters GamingHamsters Gaming
269 Long Gone Days Mar 28, 2018 $14.99N/A (N/A)0 .. 20,0000%00:00 (00:00)BURABURA
270 Ostalgie: The Berlin Wall Mar 25, 2018 $5.99N/A (N/A)100,000 .. 200,0000%00:00 (00:00)KremlingamesKremlingames
271 CONFLICT OF NATIONS: WORLD WAR 3 Mar 15, 2018 FreeN/A (N/A)200,000 .. 500,00033.33%04:24 (01:28)Dorado GamesDorado Games
272 King Of Mazes Mar 15, 2018 $1.99N/A (N/A)0 .. 20,0000%00:00 (00:00)King Key GamesKing Key Games
273 Cruz Brothers Mar 13, 2018 $4.99N/A (N/A)0 .. 20,0000%00:00 (00:00)DCF StudiosDCF Studios
274 a Museum of Dubious Splendors Mar 6, 2018 FreeN/A (N/A)20,000 .. 50,0000%00:00 (00:00)Studio OleomingusThe Irregular Corporation
275 ❂ Heroes of Hexaluga ❂ Nov 15, 2017 $9.99N/A (N/A)20,000 .. 50,0000%00:00 (00:00)❂ Heroes of Hexaluga ❂❂ Heroes of Hexaluga ❂
276 Call of War: World War 2 Oct 21, 2017 FreeN/A (N/A)500,000 .. 1,000,0000%00:00 (00:00)Bytro Labs GmbHBytro Labs GmbH
277 Boom Island Oct 16, 2017 $0.99N/A (N/A)20,000 .. 50,0000%00:00 (00:00)Caden Goodwincsgood
278 Arms Race - TCWE Oct 5, 2017 $14.99N/A (N/A)0 .. 20,0000%00:00 (00:00)Alina DigitalAlina Digital
279 Darkarta: A Broken Heart's Quest Standard Edition Aug 28, 2017 $5.99N/A (N/A)0 .. 20,0000%00:00 (00:00)Tuttifrutti InteractiveTuttifrutti Interactive
280 Strategy & Tactics: Dark Ages Aug 4, 2017 $14.99N/A (N/A)50,000 .. 100,0000%00:00 (00:00)HeroLabsHeroLabs
281 Anti Zombie AI - Tower Defense (Azai - TD) Aug 4, 2017 $1.99N/A (N/A)0 .. 20,0000%00:00 (00:00)PodShoh StudioPodShoh Studio
282 Supreme Ruler The Great War Aug 1, 2017 $19.99N/A (N/A)0 .. 20,0000%00:00 (00:00)BattleGoat StudiosBattleGoat Studios
283 Project First Contact Jul 26, 2017 $0.5N/A (N/A)20,000 .. 50,0000%00:00 (00:00)Cristian Manolachi, Atomic FabrikCristian Manolachi, Atomic Fabrik
284 Tragedy of Prince Rupert Jul 26, 2017 $3.99N/A (N/A)0 .. 20,0000%00:00 (00:00)SpytihněvSpytihněv
285 Blind Men Jul 25, 2017 $3.99N/A (N/A)0 .. 20,0000%00:00 (00:00)Man-Eater GamesMan-Eater Games
286 Tell a Demon Jul 13, 2017 $3.89N/A (N/A)0 .. 20,0000%00:00 (00:00)Sun Labyrinth LLCSun Labyrinth LLC
287 IKEA VR Pancake Kitchen May 30, 2017 FreeN/A (N/A)100,000 .. 200,0000%00:00 (00:00)IKEA Communications ABIKEA Communications AB
288 Interkosmos Apr 25, 2017 $4.99N/A (N/A)20,000 .. 50,0000%00:00 (00:00)Ovid WorksOvid Works
289 Crisis in the Kremlin Mar 20, 2017 $4.99N/A (N/A)200,000 .. 500,0000%00:00 (00:00)KremlingamesKremlingames
290 Darkarta: A Broken Heart's Quest Collector's Edition Mar 8, 2017 $9.99N/A (N/A)50,000 .. 100,0000%00:00 (00:00)Tuttifrutti InteractiveTuttifrutti Interactive
291 Greenwood the Last Ritual Jan 19, 2017 $0.59N/A (N/A)100,000 .. 200,0000%00:00 (00:00)AO2GameAO2Game
292 Lost in Secular Love Oct 28, 2016 $9.99N/A (N/A)20,000 .. 50,0000%00:00 (00:00)YETU GAMEYETU GAME
293 BioShock 2 Remastered Sep 15, 2016 $19.99N/A (N/A)500,000 .. 1,000,0000.8%06:14 (04:09)2K Marin, 2K China, Digital Extremes, 2K Australia, Blind Squirrel, Feral Interactive (Mac)2K, Feral Interactive (Mac)
294 The Cold War Era Sep 9, 2016 $4.99N/A (N/A)0 .. 20,0000%00:00 (00:00)Alina DigitalAlina Digital
295 PRINCIPIA: Master of Science Sep 9, 2016 $9.99N/A (N/A)20,000 .. 50,0000%00:00 (00:00)tomeappPLAYISM
296 Ultimate Arena Aug 22, 2016 $4.99N/A (N/A)100,000 .. 200,0000%00:00 (00:00)TriverskeTriverske
297 Steam Squad Jul 28, 2016 $17.99N/A (N/A)20,000 .. 50,0000%00:00 (00:00)Bretwalda GamesBretwalda Games
298 FreeHolder Jul 5, 2016 $9.99N/A (N/A)0 .. 20,0000%00:00 (00:00)RogueWareRogueWare
299 The Temporal Invasion Jul 4, 2016 $6.99N/A (N/A)20,000 .. 50,0000%00:00 (00:00)Hybriona LabsHybriona Labs
300 War of the Human Tanks - Limited Operations Jun 13, 2016 $9.99N/A (N/A)20,000 .. 50,0000%00:00 (00:00)Yakiniku BanzaiFruitbat Factory
301 Dino Eggs: Rebirth Jun 8, 2016 $9.99N/A (N/A)0 .. 20,0000%00:00 (00:00)David H Schroeder, Eric FerrotDavid H Schroeder
302 Pharaonic Apr 28, 2016 $14.99N/A (N/A)50,000 .. 100,0000%00:00 (00:00)Milkstone StudiosMilkstone Studios
303 Strategy & Tactics: Wargame Collection Apr 22, 2016 $9.99N/A (N/A)50,000 .. 100,0000%00:00 (00:00)HeroLabsHeroLabs
304 Karaski: What Goes Up... Mar 2, 2016 $11.99N/A (N/A)100,000 .. 200,0000%00:00 (00:00)Unbound CreationsUnbound Creations
305 Age of Gladiators Feb 25, 2016 $9.99N/A (N/A)100,000 .. 200,0000%00:00 (00:00)Creative Storm EntertainmentCreative Storm Entertainment
306 Turnover Dec 15, 2015 $1.99N/A (N/A)0 .. 20,0000%00:00 (00:00)Long Division LLCLong Division LLC
307 Hegemony III: Clash of the Ancients Aug 25, 2015 $29.99N/A (N/A)20,000 .. 50,0000%00:00 (00:00)Longbow GamesLongbow Games
308 I Shall Remain Aug 24, 2015 $9.99N/A (N/A)20,000 .. 50,0000%00:00 (00:00)Scorpius GamesScorpius Games
309 Dark Storm: VR Missions Aug 19, 2015 N/AN/A (N/A)0 .. 20,0000%00:00 (00:00)Fenrir StudiosFenrir Studios
310 Colonial Conquest Jul 28, 2015 $9.99N/A (N/A)0 .. 20,0000%00:00 (00:00)Argonauts Interactive, Collectif NemoïdPlug In Digital, Argonauts Interactive
311 Deadlands Noir - That Old Time Religion Jul 3, 2015 $1.99N/A (N/A)0 .. 20,0000%00:00 (00:00)SmiteWorks USA, LLCSmiteWorks USA, LLC
312 The Silent Age May 29, 2015 $9.99N/A (N/A)200,000 .. 500,0000%00:00 (00:00)House On FireMeridian4
313 War of the Human Tanks - ALTeR Feb 13, 2015 $12.99N/A (N/A)20,000 .. 50,0000%00:00 (00:00)Yakiniku BanzaiFruitbat Factory
314 Making History: The Great War Jan 29, 2015 $29.99N/A (N/A)20,000 .. 50,0000%00:00 (00:00)Muzzy Lane Software, Factus GamesFactus Games
315 Supreme Ruler Ultimate Oct 17, 2014 $19.99N/A (N/A)50,000 .. 100,0000%00:00 (00:00)BattleGoat StudiosBattleGoat Studios
316 War of the Human Tanks Sep 14, 2012 $9.99N/A (N/A)100,000 .. 200,0000%00:00 (00:00)Yakiniku BanzaiFruitbat Factory
317 Titan Attacks! Feb 3, 2012 $9.99N/A (N/A)50,000 .. 100,0000%00:00 (00:00)PuppygamesPuppygames
Overview

Alternate History

Games with this tag: 317
Average userscore: N/A%
Average metascore: 74.25%
Average playtime: 06:51
Total copies owned: 53,872,000
Average price: $12.8
Help

Owners: Estimated number of people owning this game. The number might be way too small for new releases and sometimes way too big for games that had free weekend event recently. Read more on About page.

Playtime: Average hours played in total per person that have actually launched this game since March 2009. This time is calculated for the whole lifetime, not for the particular year.

Average score: Average users and metacritic score for all games with this score assigned.

Average playtime: Average lifetime playtime for all games where this data is available.

Games in this genre: Self-explaining - number of games with this tag. Only inculdes games with sales data available.

Total copies owned: Refers to total copies of games with this tag acquired by users for the lifetime. Includes copies sold, downloaded for free and given out.

This number might be too small for recently released games or too big for games that had a free weekend in the last couple of months.

Graphs

Login required.

Please register or log in to see this information.

Login required.

Please register or log in to see this information.